Time;durP1;ratioP1;P1;durP2;ratioP2;P2;SDS_P1;SDS_P2;PMS_P1;PMS_P2;Temp;Humidity;BMP_temperature;BMP_pressure;BME280_temperature;BME280_humidity;BME280_pressure;Samples;Min_cycle;Max_cycle;Signal;HPM_P1;HPM_P2
2022/01/06 00:01:35;;;;;;;15.95;6.35;;;;;;;3.71;76.36;99781.73;1809253;78;27456;-61
2022/01/06 00:04:02;;;;;;;11.83;6.85;;;;;;;3.66;76.27;99793.68;1807952;79;25696;-61
2022/01/06 00:06:30;;;;;;;15.25;7.25;;;;;;;3.58;76.17;99797.77;1816562;79;25719;-61
2022/01/06 00:09:01;;;;;;;12.95;7.28;;;;;;;3.54;76.07;99798.95;1816415;79;25833;-61
2022/01/06 00:11:29;;;;;;;11.38;6.45;;;;;;;3.48;76.09;99803.87;1816480;79;25703;-61
2022/01/06 00:14:22;;;;;;;13.58;8.10;;;;;;;3.42;76.12;99802.05;1784531;79;26783;-61
2022/01/06 00:16:59;;;;;;;13.25;6.97;;;;;;;3.38;76.23;99802.39;1782882;79;26304;-61
2022/01/06 00:24:28;;;;;;;14.75;6.92;;;;;;;3.28;76.48;99802.20;1744727;82;25784;-61
2022/01/06 00:26:57;;;;;;;12.90;6.78;;;;;;;3.26;76.61;99810.80;1775642;80;27465;-61
2022/01/06 00:29:24;;;;;;;12.23;7.05;;;;;;;3.22;76.57;99813.30;1775516;80;25825;-61
2022/01/06 00:31:52;;;;;;;9.03;5.95;;;;;;;3.18;76.71;99821.15;1780921;79;26145;-61
2022/01/06 00:34:19;;;;;;;12.03;7.00;;;;;;;3.15;76.75;99817.37;1811212;79;25785;-61
2022/01/06 00:36:46;;;;;;;9.90;6.20;;;;;;;3.13;77.46;99826.30;1804013;79;25750;-61
2022/01/06 00:39:13;;;;;;;12.68;5.65;;;;;;;3.11;77.25;99830.88;1779404;80;28469;-61
2022/01/06 00:41:40;;;;;;;11.95;7.28;;;;;;;3.14;77.32;99841.75;1779429;79;25784;-61
2022/01/06 00:44:08;;;;;;;11.25;6.40;;;;;;;3.17;77.64;99840.21;1778970;80;25792;-61
2022/01/06 00:46:36;;;;;;;12.03;5.83;;;;;;;3.22;78.10;99833.23;1784572;79;25776;-61
2022/01/06 00:49:04;;;;;;;10.90;5.65;;;;;;;3.21;77.75;99855.45;1801859;78;25746;-61
2022/01/06 00:51:31;;;;;;;11.18;6.15;;;;;;;3.20;78.66;99893.63;1792588;78;28156;-60
2022/01/06 00:53:58;;;;;;;12.85;5.85;;;;;;;3.29;81.40;99907.58;1763654;81;25720;-61
2022/01/06 00:56:25;;;;;;;11.33;5.65;;;;;;;3.61;82.29;99916.38;1764260;81;25801;-61
2022/01/06 00:58:52;;;;;;;10.08;5.33;;;;;;;3.85;81.78;99905.73;1764060;81;26551;-61
2022/01/06 01:01:19;;;;;;;15.53;6.30;;;;;;;4.09;81.21;99915.49;1784244;78;25934;-61
2022/01/06 01:03:46;;;;;;;10.82;5.30;;;;;;;4.29;80.80;99909.15;1824563;78;27463;-61
2022/01/06 01:06:12;;;;;;;14.50;5.87;;;;;;;4.52;80.47;99921.53;1825787;78;25715;-61
2022/01/06 01:08:41;;;;;;;11.75;5.22;;;;;;;4.76;80.24;99931.25;1825810;78;25621;-62
2022/01/06 01:11:09;;;;;;;12.70;6.40;;;;;;;4.94;79.67;99940.11;1823926;78;25786;-61
2022/01/06 01:13:54;;;;;;;11.48;6.70;;;;;;;5.11;79.22;99942.29;1827827;78;25996;-62
2022/01/06 01:16:20;;;;;;;8.93;5.55;;;;;;;5.24;78.69;99948.86;1825091;78;27485;-61
2022/01/06 01:18:36;;;;;;;10.43;6.28;;;;;;;5.32;78.25;99942.42;1809620;78;25456;-61
2022/01/06 01:21:06;;;;;;;10.90;5.85;;;;;;;5.40;78.17;99935.62;1793157;78;25862;-61
2022/01/06 01:23:36;;;;;;;16.40;6.60;;;;;;;5.47;78.11;99940.82;1827989;78;25789;-62
2022/01/06 01:26:03;;;;;;;13.90;7.90;;;;;;;5.49;78.34;99950.89;1828195;78;25794;-61
2022/01/06 01:28:42;;;;;;;15.10;6.30;;;;;;;5.55;79.01;99954.89;1827755;78;27466;-61
2022/01/06 01:31:24;;;;;;;16.37;7.00;;;;;;;5.61;78.66;99963.22;1824450;78;25789;-61
2022/01/06 01:33:42;;;;;;;16.12;6.97;;;;;;;5.67;79.27;99961.05;1802822;78;25453;-61
2022/01/06 01:36:11;;;;;;;13.00;7.05;;;;;;;5.70;79.26;99980.32;1791533;79;25760;-62
2022/01/06 01:38:39;;;;;;;12.82;7.00;;;;;;;5.73;79.30;99985.89;1761667;79;25617;-60
2022/01/06 01:41:08;;;;;;;12.93;6.45;;;;;;;5.76;79.76;99985.16;1782947;80;28299;-61
2022/01/06 01:43:37;;;;;;;27.02;11.85;;;;;;;5.75;79.22;99991.45;1753074;81;25823;-62
2022/01/06 01:46:13;;;;;;;54.05;21.33;;;;;;;5.78;79.33;100001.89;1724213;81;25713;-62
2022/01/06 01:48:43;;;;;;;58.38;23.18;;;;;;;5.78;79.15;100017.08;1761345;81;25695;-61
2022/01/06 01:51:11;;;;;;;43.35;18.55;;;;;;;5.76;78.79;100015.01;1764499;79;25680;-62
2022/01/06 01:53:39;;;;;;;37.38;13.72;;;;;;;5.76;78.66;100019.02;1768484;78;28119;-60
2022/01/06 01:56:12;;;;;;;36.75;12.98;;;;;;;5.74;78.60;100024.95;1767670;81;25700;-60
2022/01/06 01:58:41;;;;;;;23.73;10.93;;;;;;;5.73;78.49;100027.25;1767999;81;26170;-61
2022/01/06 02:01:12;;;;;;;18.20;9.38;;;;;;;5.69;78.67;100026.66;1768311;79;25765;-61
2022/01/06 02:03:39;;;;;;;17.20;8.90;;;;;;;5.67;78.60;100033.09;1783955;79;25790;-61
2022/01/06 02:06:06;;;;;;;23.30;10.10;;;;;;;5.67;78.66;100041.09;1762069;81;27468;-61
2022/01/06 02:08:34;;;;;;;19.65;8.38;;;;;;;5.66;78.85;100047.41;1763036;79;25763;-61
2022/01/06 02:11:03;;;;;;;12.63;6.60;;;;;;;5.61;78.77;100036.59;1800339;79;25435;-62
2022/01/06 02:13:32;;;;;;;20.65;7.92;;;;;;;5.60;78.75;100036.73;1791141;79;27875;-61
2022/01/06 02:16:01;;;;;;;13.50;6.87;;;;;;;5.57;78.72;100023.63;1758535;81;25816;-61
2022/01/06 02:18:29;;;;;;;17.92;7.20;;;;;;;5.56;79.19;100032.63;1761688;81;28133;-61
2022/01/06 02:20:57;;;;;;;10.60;6.95;;;;;;;5.52;79.43;100035.99;1787209;79;25585;-61
2022/01/06 02:23:24;;;;;;;10.93;5.80;;;;;;;5.47;79.80;100046.19;1807520;78;25841;-61
2022/01/06 02:25:51;;;;;;;10.25;6.50;;;;;;;5.43;80.18;100046.92;1773745;78;26386;-61
2022/01/06 02:28:26;;;;;;;10.65;6.15;;;;;;;5.42;80.51;100043.05;1778626;79;25790;-61
2022/01/06 02:30:52;;;;;;;9.58;5.67;;;;;;;5.43;80.35;100044.72;1786738;79;28080;-61
2022/01/06 02:33:22;;;;;;;9.95;6.03;;;;;;;5.40;80.40;100032.48;1780172;79;25478;-62
2022/01/06 02:35:50;;;;;;;13.53;6.10;;;;;;;5.36;80.27;100031.05;1815221;78;25670;-61
2022/01/06 02:38:18;;;;;;;8.73;5.50;;;;;;;5.32;80.21;100039.77;1797415;78;25745;-61
2022/01/06 02:40:46;;;;;;;12.68;6.47;;;;;;;5.29;80.60;100057.34;1792493;80;26105;-61
2022/01/06 02:43:17;;;;;;;11.68;6.28;;;;;;;5.26;80.39;100048.73;1792732;80;27388;-61
2022/01/06 02:45:46;;;;;;;10.23;5.80;;;;;;;5.25;80.33;100060.36;1809294;78;25953;-61
2022/01/06 02:48:16;;;;;;;11.88;6.22;;;;;;;5.24;80.14;100064.86;1824996;78;26366;-61
2022/01/06 02:50:49;;;;;;;9.10;6.17;;;;;;;5.22;80.05;100062.79;1800936;78;25818;-61
2022/01/06 02:53:18;;;;;;;10.27;6.20;;;;;;;5.20;80.61;100078.55;1759724;80;25736;-61
2022/01/06 02:55:54;;;;;;;7.92;5.78;;;;;;;5.17;80.83;100077.81;1764097;79;27433;-61
2022/01/06 02:58:20;;;;;;;8.93;5.72;;;;;;;5.19;80.64;100071.02;1740828;82;25786;-61
2022/01/06 03:00:50;;;;;;;9.95;6.37;;;;;;;5.17;80.28;100060.48;1756455;80;25473;-61
2022/01/06 03:03:18;;;;;;;8.40;5.75;;;;;;;5.19;80.09;100061.69;1792091;79;25693;-61
2022/01/06 03:05:45;;;;;;;12.30;6.30;;;;;;;5.22;80.09;100057.92;1791920;79;26592;-61
2022/01/06 03:08:12;;;;;;;8.18;5.10;;;;;;;5.21;80.16;100051.76;1766174;79;27444;-61
2022/01/06 03:10:43;;;;;;;6.95;5.17;;;;;;;5.22;79.90;100060.59;1808676;79;25783;-61
2022/01/06 03:13:08;;;;;;;13.75;6.08;;;;;;;5.23;80.10;100074.30;1810744;79;25651;-61
2022/01/06 03:15:35;;;;;;;10.35;5.53;;;;;;;5.22;79.83;100066.79;1793278;79;25785;-61
2022/01/06 03:18:03;;;;;;;10.23;6.37;;;;;;;5.22;80.04;100080.59;1784699;79;25829;-61
2022/01/06 03:20:34;;;;;;;8.88;6.10;;;;;;;5.21;79.93;100089.55;1797444;79;27480;-61
2022/01/06 03:23:01;;;;;;;8.28;5.95;;;;;;;5.17;79.98;100078.28;1797415;79;25843;-61
2022/01/06 03:25:30;;;;;;;10.18;6.15;;;;;;;5.12;79.73;100071.97;1785991;79;25908;-61
2022/01/06 03:28:00;;;;;;;10.72;6.28;;;;;;;5.13;79.99;100081.67;1778928;80;25803;-61
2022/01/06 03:30:27;;;;;;;9.73;6.15;;;;;;;5.13;79.72;100088.83;1778798;80;25793;-61
2022/01/06 03:32:54;;;;;;;9.98;6.53;;;;;;;5.10;79.73;100081.92;1773720;80;27480;-61
2022/01/06 03:35:26;;;;;;;14.83;6.40;;;;;;;5.06;79.23;100076.95;1780826;79;25689;-61
2022/01/06 03:37:54;;;;;;;12.75;7.22;;;;;;;5.01;79.07;100090.63;1782386;79;25438;-61
2022/01/06 03:40:21;;;;;;;12.98;6.58;;;;;;;4.92;78.74;100083.33;1795719;79;26596;-61
2022/01/06 03:42:50;;;;;;;8.48;6.03;;;;;;;4.86;78.33;100084.64;1755593;80;25742;-61
2022/01/06 03:45:19;;;;;;;13.20;7.50;;;;;;;4.75;77.95;100094.76;1802701;78;27457;-61
2022/01/06 03:47:46;;;;;;;16.85;8.70;;;;;;;4.64;77.62;100084.91;1767182;79;25791;-61
2022/01/06 03:50:16;;;;;;;15.00;8.13;;;;;;;4.53;77.55;100083.06;1762000;81;25698;-61
2022/01/06 03:52:43;;;;;;;11.88;7.20;;;;;;;4.33;76.77;100079.22;1770313;80;25744;-61
2022/01/06 03:55:14;;;;;;;12.28;8.10;;;;;;;4.06;76.77;100086.92;1784084;79;25713;-61
2022/01/06 03:57:41;;;;;;;11.20;7.70;;;;;;;3.91;77.06;100099.52;1799675;79;27414;-61
2022/01/06 04:00:13;;;;;;;12.50;7.75;;;;;;;3.83;77.05;100112.53;1799361;79;25732;-61
2022/01/06 04:02:41;;;;;;;10.82;8.28;;;;;;;3.78;77.88;100113.31;1775134;79;25733;-61
2022/01/06 04:05:10;;;;;;;14.33;8.10;;;;;;;3.71;77.64;100111.59;1767610;79;26452;-61
2022/01/06 04:07:37;;;;;;;10.25;6.65;;;;;;;3.63;77.41;100135.69;1762672;79;25704;-61
2022/01/06 04:10:07;;;;;;;14.45;7.17;;;;;;;3.53;77.66;100144.80;1761797;81;27483;-61
2022/01/06 04:12:36;;;;;;;12.98;6.62;;;;;;;3.51;77.88;100150.69;1762011;81;25728;-61
2022/01/06 04:15:08;;;;;;;10.30;7.45;;;;;;;3.48;77.91;100153.55;1776741;79;25727;-61
2022/01/06 04:17:34;;;;;;;14.10;7.47;;;;;;;3.37;78.58;100157.80;1799279;79;25871;-61
2022/01/06 04:20:01;;;;;;;9.30;6.05;;;;;;;3.36;80.56;100153.43;1764898;79;25754;-61
2022/01/06 04:22:31;;;;;;;11.53;6.70;;;;;;;3.41;80.33;100133.17;1762316;81;28296;-61
2022/01/06 04:24:58;;;;;;;11.70;6.30;;;;;;;3.43;80.06;100141.44;1771263;79;25816;-61
2022/01/06 04:27:26;;;;;;;11.60;7.03;;;;;;;3.43;79.69;100141.44;1791938;79;25713;-61
2022/01/06 04:29:53;;;;;;;10.55;5.97;;;;;;;3.42;79.65;100141.06;1799306;79;25776;-61
2022/01/06 04:32:20;;;;;;;8.78;6.45;;;;;;;3.47;79.92;100146.06;1799050;78;25784;-61
2022/01/06 04:34:48;;;;;;;8.90;5.80;;;;;;;3.52;79.97;100146.59;1791246;78;27492;-61
2022/01/06 04:37:15;;;;;;;10.98;6.20;;;;;;;3.50;79.53;100152.48;1790599;78;25727;-61
2022/01/06 04:39:42;;;;;;;13.62;5.42;;;;;;;3.53;79.54;100156.77;1787480;78;25727;-61
2022/01/06 04:42:09;;;;;;;12.13;6.75;;;;;;;3.51;79.22;100171.47;1776147;79;26413;-61
2022/01/06 04:44:36;;;;;;;10.08;6.15;;;;;;;3.48;79.17;100163.73;1768080;80;25820;-61
2022/01/06 04:47:03;;;;;;;14.83;5.83;;;;;;;3.43;78.71;100165.38;1767868;80;27458;-61
2022/01/06 04:49:34;;;;;;;14.10;7.40;;;;;;;3.38;78.42;100154.67;1782448;79;25877;-60
2022/01/06 04:52:04;;;;;;;8.93;6.28;;;;;;;3.35;78.52;100161.06;1767545;81;25738;-61
2022/01/06 04:54:32;;;;;;;15.93;6.72;;;;;;;3.28;78.34;100179.23;1785167;79;25810;-61
2022/01/06 04:56:59;;;;;;;10.90;6.47;;;;;;;3.23;78.30;100176.02;1799560;79;25817;-61
2022/01/06 04:59:26;;;;;;;9.03;6.35;;;;;;;3.18;78.34;100172.83;1784744;79;27362;-61
2022/01/06 05:01:56;;;;;;;11.78;6.72;;;;;;;3.09;77.69;100169.45;1768779;79;25712;-61
2022/01/06 05:04:23;;;;;;;15.43;7.40;;;;;;;3.01;77.63;100171.78;1737650;82;25691;-61
2022/01/06 05:06:54;;;;;;;12.13;7.75;;;;;;;2.88;77.20;100191.17;1758312;81;25794;-61
2022/01/06 05:09:19;;;;;;;17.75;7.33;;;;;;;2.78;77.34;100180.31;1748252;79;25852;-61
2022/01/06 05:11:45;;;;;;;15.65;8.05;;;;;;;2.75;77.51;100173.03;1793284;80;27448;-61
2022/01/06 05:14:12;;;;;;;14.70;8.08;;;;;;;2.70;77.51;100162.70;1793169;80;27367;-61
2022/01/06 05:16:39;;;;;;;14.13;7.35;;;;;;;2.66;77.54;100166.50;1786834;80;25769;-61
2022/01/06 05:19:08;;;;;;;13.28;8.15;;;;;;;2.61;77.53;100157.50;1771344;80;25958;-61
2022/01/06 05:21:35;;;;;;;17.98;7.87;;;;;;;2.57;77.56;100156.48;1802488;79;25755;-60
2022/01/06 05:24:12;;;;;;;12.03;7.28;;;;;;;2.54;77.52;100178.78;1802697;79;27445;-61
2022/01/06 05:26:35;;;;;;;13.43;8.00;;;;;;;2.50;77.51;100176.80;1798973;79;25733;-61
2022/01/06 05:29:02;;;;;;;14.65;7.47;;;;;;;2.47;77.49;100188.94;1798242;79;25672;-61
2022/01/06 05:31:29;;;;;;;12.80;7.10;;;;;;;2.46;77.74;100193.02;1791710;79;26486;-61
2022/01/06 05:33:56;;;;;;;11.57;6.85;;;;;;;2.47;77.88;100190.27;1774650;79;25809;-61
2022/01/06 05:36:23;;;;;;;11.25;6.62;;;;;;;2.49;77.91;100198.15;1784491;80;27662;-61
2022/01/06 05:38:49;;;;;;;11.75;6.33;;;;;;;2.50;77.97;100196.71;1784315;79;26429;-61
2022/01/06 05:41:16;;;;;;;17.17;7.42;;;;;;;2.50;77.83;100193.22;1800318;79;25782;-61
2022/01/06 05:43:43;;;;;;;11.35;6.87;;;;;;;2.50;77.89;100182.11;1773910;78;26518;-61
2022/01/06 05:46:11;;;;;;;16.90;7.85;;;;;;;2.50;77.96;100192.73;1770934;79;25717;-61
2022/01/06 05:48:38;;;;;;;14.28;7.67;;;;;;;2.48;77.69;100207.90;1782921;79;28533;-61
2022/01/06 05:51:05;;;;;;;15.18;7.78;;;;;;;2.46;78.04;100219.58;1784321;80;26194;-61
2022/01/06 05:53:32;;;;;;;17.87;9.23;;;;;;;2.51;78.35;100226.76;1784590;79;25755;-61
2022/01/06 05:55:59;;;;;;;14.33;8.28;;;;;;;2.57;78.80;100232.16;1784346;79;25808;-61
2022/01/06 05:58:26;;;;;;;15.63;8.10;;;;;;;2.60;78.58;100238.12;1787223;79;25724;-61
2022/01/06 06:00:52;;;;;;;9.83;6.92;;;;;;;2.61;78.31;100231.02;1803068;79;28302;-61
2022/01/06 06:03:22;;;;;;;12.40;6.35;;;;;;;2.60;78.08;100229.31;1795760;79;25786;-61
2022/01/06 06:05:49;;;;;;;16.10;6.72;;;;;;;2.52;77.73;100240.41;1784667;80;25691;-61
2022/01/06 06:08:21;;;;;;;24.02;10.72;;;;;;;2.55;78.00;100237.58;1785172;79;25844;-62
2022/01/06 06:10:48;;;;;;;16.17;10.00;;;;;;;2.59;78.19;100239.56;1772493;79;25792;-61
2022/01/06 06:13:15;;;;;;;22.07;11.35;;;;;;;2.64;78.38;100233.50;1785000;79;27517;-62
2022/01/06 06:15:42;;;;;;;17.35;8.40;;;;;;;2.69;78.42;100224.74;1803334;78;26286;-62
2022/01/06 06:18:12;;;;;;;15.78;8.68;;;;;;;2.73;78.36;100224.06;1802942;78;25681;-62
2022/01/06 06:20:40;;;;;;;15.25;8.10;;;;;;;2.79;78.18;100235.61;1784400;79;25877;-62
2022/01/06 06:23:07;;;;;;;14.15;8.55;;;;;;;2.81;77.90;100239.90;1787856;79;25854;-61
2022/01/06 06:25:35;;;;;;;12.98;8.05;;;;;;;2.84;77.46;100241.95;1802538;78;27700;-62
2022/01/06 06:28:02;;;;;;;14.65;8.83;;;;;;;2.82;77.33;100248.70;1802249;79;25744;-62
2022/01/06 06:30:29;;;;;;;15.65;8.98;;;;;;;2.84;77.38;100252.58;1784559;80;25771;-61
2022/01/06 06:32:56;;;;;;;14.58;8.00;;;;;;;2.87;77.25;100255.89;1784122;80;28045;-62
2022/01/06 06:35:23;;;;;;;16.40;8.73;;;;;;;2.85;77.12;100256.95;1801061;78;25807;-62
2022/01/06 06:37:50;;;;;;;16.73;9.20;;;;;;;2.87;77.24;100258.55;1794843;79;27448;-62
2022/01/06 06:40:19;;;;;;;16.73;8.80;;;;;;;2.91;77.34;100259.23;1802505;79;25672;-63
2022/01/06 06:42:45;;;;;;;15.13;8.50;;;;;;;2.94;77.41;100265.19;1799857;79;25721;-62
2022/01/06 06:45:13;;;;;;;24.00;15.38;;;;;;;2.99;77.11;100260.91;1768419;79;25802;-61
2022/01/06 06:47:39;;;;;;;13.35;8.00;;;;;;;3.00;77.08;100270.59;1766227;79;25814;-61
2022/01/06 06:50:12;;;;;;;16.48;8.45;;;;;;;3.05;77.15;100272.45;1767846;79;27556;-62
2022/01/06 06:52:38;;;;;;;20.65;8.18;;;;;;;3.10;77.19;100276.98;1772573;79;25804;-62
2022/01/06 06:55:07;;;;;;;13.80;7.72;;;;;;;3.16;77.47;100282.38;1795402;79;25469;-62
2022/01/06 06:57:34;;;;;;;15.13;7.47;;;;;;;3.23;77.49;100286.82;1787547;79;25771;-61
2022/01/06 07:00:04;;;;;;;11.33;7.55;;;;;;;3.30;77.43;100280.14;1800836;79;25452;-61
2022/01/06 07:02:31;;;;;;;15.43;8.65;;;;;;;3.37;77.32;100274.78;1801822;79;28266;-61
2022/01/06 07:04:59;;;;;;;23.45;10.50;;;;;;;3.44;77.41;100276.56;1781195;79;26501;-62
2022/01/06 07:07:27;;;;;;;19.15;11.30;;;;;;;3.52;77.63;100292.02;1767611;81;25749;-61
2022/01/06 07:09:57;;;;;;;22.75;10.32;;;;;;;3.57;78.40;100295.21;1767753;81;25719;-61
2022/01/06 07:12:24;;;;;;;22.75;10.53;;;;;;;3.65;78.87;100302.20;1767609;81;25829;-61
2022/01/06 07:14:51;;;;;;;19.17;10.20;;;;;;;3.73;79.39;100294.55;1786842;79;27482;-61
2022/01/06 07:17:17;;;;;;;16.57;8.38;;;;;;;3.83;80.01;100299.25;1769000;79;25720;-62
2022/01/06 07:19:46;;;;;;;19.35;9.05;;;;;;;3.89;80.35;100298.36;1767518;81;25722;-62
2022/01/06 07:22:13;;;;;;;16.35;9.18;;;;;;;3.98;80.41;100298.68;1767424;81;25839;-61
2022/01/06 07:24:39;;;;;;;16.50;8.25;;;;;;;4.04;80.50;100304.44;1783356;79;25884;-62
2022/01/06 07:27:06;;;;;;;16.52;8.05;;;;;;;4.13;80.30;100309.59;1801554;79;28260;-62
2022/01/06 07:29:33;;;;;;;15.03;8.85;;;;;;;4.24;80.20;100316.86;1767242;81;25798;-62
2022/01/06 07:32:00;;;;;;;13.55;7.80;;;;;;;4.30;80.00;100313.77;1799855;79;25468;-62
2022/01/06 07:34:27;;;;;;;18.17;8.50;;;;;;;4.38;80.03;100306.09;1798130;78;25786;-62
2022/01/06 07:36:53;;;;;;;17.15;7.30;;;;;;;4.47;79.97;100297.07;1787308;80;25737;-61
2022/01/06 07:39:20;;;;;;;17.85;7.45;;;;;;;4.53;79.97;100300.16;1787399;80;27552;-62
2022/01/06 07:41:47;;;;;;;14.98;7.83;;;;;;;4.61;80.10;100313.41;1787306;80;25779;-62
2022/01/06 07:44:16;;;;;;;14.78;7.00;;;;;;;4.67;80.30;100317.83;1796210;78;25728;-61
2022/01/06 07:46:45;;;;;;;15.15;8.68;;;;;;;4.74;80.19;100308.92;1787364;78;26594;-62
2022/01/06 07:49:12;;;;;;;10.85;6.80;;;;;;;4.89;80.14;100316.27;1794987;78;26433;-62
2022/01/06 07:51:39;;;;;;;16.65;8.13;;;;;;;5.02;79.86;100313.56;1787271;79;28132;-62
2022/01/06 07:54:07;;;;;;;18.35;7.87;;;;;;;5.12;79.62;100318.60;1790715;78;27291;-62
2022/01/06 07:56:35;;;;;;;19.70;8.13;;;;;;;5.20;79.35;100326.05;1789951;78;25786;-61
2022/01/06 07:59:04;;;;;;;16.45;7.47;;;;;;;5.26;78.93;100327.42;1756446;78;25734;-62
2022/01/06 08:01:30;;;;;;;11.83;7.20;;;;;;;5.27;78.72;100327.30;1791884;78;25678;-62
2022/01/06 08:03:57;;;;;;;16.05;7.45;;;;;;;5.28;78.63;100324.17;1816978;78;27533;-62
2022/01/06 08:06:24;;;;;;;14.68;7.33;;;;;;;5.32;78.55;100329.16;1817248;78;25449;-61
2022/01/06 08:08:53;;;;;;;14.85;7.00;;;;;;;5.37;78.37;100331.95;1794016;78;25847;-62
2022/01/06 08:11:19;;;;;;;15.18;7.33;;;;;;;5.40;78.24;100319.23;1785645;80;25769;-62
2022/01/06 08:13:46;;;;;;;32.38;14.00;;;;;;;5.45;78.13;100310.43;1786812;78;25841;-61
2022/01/06 08:16:13;;;;;;;29.42;13.15;;;;;;;5.56;78.08;100307.45;1790811;79;27532;-61
2022/01/06 08:18:40;;;;;;;23.20;12.07;;;;;;;5.67;78.11;100301.29;1796343;78;25749;-61
2022/01/06 08:21:07;;;;;;;22.50;11.65;;;;;;;5.83;78.31;100311.16;1791948;78;25735;-62
2022/01/06 08:23:33;;;;;;;12.43;8.13;;;;;;;5.98;78.24;100301.13;1769173;79;25788;-62
2022/01/06 08:26:00;;;;;;;15.58;9.03;;;;;;;6.08;77.66;100300.83;1777692;79;25759;-62
2022/01/06 08:28:27;;;;;;;20.00;8.80;;;;;;;6.09;77.17;100306.54;1767715;79;27483;-62
2022/01/06 08:30:55;;;;;;;12.40;7.65;;;;;;;6.15;77.13;100309.69;1774015;79;25696;-62
2022/01/06 08:33:22;;;;;;;13.38;6.40;;;;;;;6.23;76.79;100310.77;1771566;79;25821;-61
2022/01/06 08:35:49;;;;;;;12.82;6.50;;;;;;;6.29;76.47;100312.13;1797281;78;25858;-62
2022/01/06 08:38:16;;;;;;;11.40;6.47;;;;;;;6.37;76.78;100319.05;1797501;78;25801;-62
2022/01/06 08:40:43;;;;;;;13.60;6.83;;;;;;;6.45;76.62;100331.82;1794539;78;27458;-62
2022/01/06 08:43:12;;;;;;;15.28;6.85;;;;;;;6.41;76.02;100327.67;1803639;78;25933;-62
2022/01/06 08:45:40;;;;;;;15.83;8.00;;;;;;;6.38;75.98;100330.11;1795275;78;25794;-62
2022/01/06 08:48:07;;;;;;;10.43;5.60;;;;;;;6.33;75.72;100321.61;1794055;79;26490;-62
2022/01/06 08:50:37;;;;;;;10.70;5.28;;;;;;;6.31;75.61;100332.06;1802487;78;25774;-61
2022/01/06 08:53:04;;;;;;;12.35;6.25;;;;;;;6.32;75.78;100331.09;1803083;78;29552;-60
2022/01/06 08:55:30;;;;;;;9.08;5.37;;;;;;;6.35;75.60;100331.70;1805828;78;26455;-61
2022/01/06 08:57:58;;;;;;;12.43;5.47;;;;;;;6.39;75.70;100334.98;1800485;78;25749;-61
2022/01/06 09:00:27;;;;;;;9.55;5.47;;;;;;;6.44;75.84;100334.12;1756895;80;25798;-61
2022/01/06 09:02:54;;;;;;;13.03;6.53;;;;;;;6.48;75.38;100323.58;1779017;79;25773;-62
2022/01/06 09:05:21;;;;;;;8.85;5.30;;;;;;;6.45;74.83;100334.49;1784227;80;27381;-63
2022/01/06 09:07:51;;;;;;;12.70;5.95;;;;;;;6.39;74.60;100330.97;1784245;80;26525;-61
2022/01/06 09:10:23;;;;;;;12.13;5.67;;;;;;;6.35;74.79;100325.02;1783477;80;25702;-61
2022/01/06 09:12:51;;;;;;;9.98;6.12;;;;;;;6.35;74.92;100329.03;1784838;80;25811;-62
2022/01/06 09:15:18;;;;;;;9.25;5.12;;;;;;;6.35;74.74;100335.71;1784146;80;25764;-62
2022/01/06 09:17:51;;;;;;;15.55;6.67;;;;;;;6.33;74.49;100332.30;1784274;80;27399;-61
2022/01/06 09:20:18;;;;;;;11.88;5.78;;;;;;;6.29;74.36;100328.66;1781004;80;25797;-62
2022/01/06 09:22:47;;;;;;;9.48;5.05;;;;;;;6.26;74.01;100325.23;1784684;79;25707;-62
2022/01/06 09:25:17;;;;;;;9.35;5.87;;;;;;;6.23;73.30;100328.64;1784305;80;25892;-62
2022/01/06 09:27:44;;;;;;;9.55;6.00;;;;;;;6.11;73.35;100328.61;1800085;79;25450;-62
2022/01/06 09:30:13;;;;;;;16.73;5.78;;;;;;;6.06;73.46;100296.08;1784994;79;27486;-62
2022/01/06 09:32:40;;;;;;;9.00;5.85;;;;;;;6.02;73.58;100311.96;1774896;79;25815;-62
2022/01/06 09:35:11;;;;;;;15.10;7.55;;;;;;;5.98;73.63;100337.17;1798467;78;25699;-61
2022/01/06 09:37:38;;;;;;;10.25;4.53;;;;;;;5.98;73.67;100331.84;1797583;78;25828;-62
2022/01/06 09:40:09;;;;;;;8.80;4.47;;;;;;;5.94;73.46;100332.56;1798877;78;25765;-62
2022/01/06 09:42:38;;;;;;;8.08;4.65;;;;;;;5.89;73.23;100340.05;1773643;80;27539;-62
2022/01/06 09:45:06;;;;;;;8.58;5.37;;;;;;;5.83;73.42;100353.04;1790430;79;25775;-61
2022/01/06 09:47:33;;;;;;;8.50;5.40;;;;;;;5.83;73.28;100361.05;1792070;80;25702;-62
2022/01/06 09:50:00;;;;;;;8.95;5.72;;;;;;;5.80;73.45;100363.44;1796650;78;25776;-62
2022/01/06 09:52:27;;;;;;;10.05;6.05;;;;;;;5.80;73.26;100348.76;1801504;78;25699;-62
2022/01/06 09:54:54;;;;;;;8.15;5.15;;;;;;;5.83;72.88;100336.52;1813742;78;28158;-61
2022/01/06 09:57:20;;;;;;;9.10;5.70;;;;;;;5.85;73.43;100340.40;1813689;78;25661;-62
2022/01/06 09:59:48;;;;;;;11.45;5.80;;;;;;;5.86;73.08;100332.30;1798212;78;25843;-61
2022/01/06 10:02:17;;;;;;;12.88;6.08;;;;;;;5.91;72.82;100321.27;1815717;78;25784;-62
2022/01/06 10:04:48;;;;;;;12.63;6.53;;;;;;;5.94;72.75;100342.37;1802972;78;25755;-62
2022/01/06 10:07:16;;;;;;;10.60;6.05;;;;;;;5.95;72.96;100352.95;1784034;80;27467;-62
2022/01/06 10:09:44;;;;;;;11.75;5.62;;;;;;;5.96;72.95;100340.44;1786165;80;25790;-62
2022/01/06 10:12:13;;;;;;;10.03;7.00;;;;;;;5.96;72.75;100348.45;1788993;79;25878;-62
2022/01/06 10:14:45;;;;;;;13.13;7.28;;;;;;;5.96;72.71;100354.63;1781143;79;25805;-62
2022/01/06 10:17:17;;;;;;;11.60;7.05;;;;;;;5.91;72.57;100356.81;1780481;79;25785;-61
2022/01/06 10:19:45;;;;;;;14.40;6.85;;;;;;;5.79;72.05;100365.27;1768902;79;28143;-62
2022/01/06 10:22:19;;;;;;;17.87;9.65;;;;;;;5.62;72.33;100359.84;1774538;79;25825;-61
2022/01/06 10:24:50;;;;;;;16.60;9.28;;;;;;;5.58;72.77;100356.19;1778971;79;25723;-62
2022/01/06 10:27:20;;;;;;;15.70;8.63;;;;;;;5.53;72.78;100341.85;1771191;79;25842;-62
2022/01/06 10:29:50;;;;;;;17.12;8.00;;;;;;;5.52;73.04;100341.48;1771863;79;25838;-62
2022/01/06 10:32:23;;;;;;;15.50;7.78;;;;;;;5.51;73.08;100343.81;1785280;79;27444;-62
2022/01/06 10:34:56;;;;;;;15.05;7.58;;;;;;;5.56;72.98;100341.63;1780400;78;25792;-61
2022/01/06 10:37:30;;;;;;;16.17;6.97;;;;;;;5.60;73.23;100341.76;1773974;79;37030;-61
2022/01/06 10:40:11;;;;;;;14.85;7.05;;;;;;;5.62;73.00;100335.83;1784400;79;26652;-61
2022/01/06 10:42:42;;;;;;;10.78;7.25;;;;;;;5.64;72.57;100325.90;1781694;79;25973;-62
2022/01/06 10:45:25;;;;;;;8.88;6.15;;;;;;;5.62;72.57;100348.34;1756208;80;27688;-61
2022/01/06 10:47:55;;;;;;;8.50;5.75;;;;;;;5.60;72.20;100368.94;1783990;79;25828;-61
2022/01/06 10:50:36;;;;;;;11.28;6.90;;;;;;;5.58;72.10;100368.19;1779366;79;25806;-61
2022/01/06 10:53:10;;;;;;;15.13;8.08;;;;;;;5.54;72.06;100376.08;1783231;79;26433;-61
2022/01/06 10:55:41;;;;;;;12.88;8.10;;;;;;;5.42;72.07;100373.34;1797330;79;25773;-61
2022/01/06 10:58:19;;;;;;;9.28;5.67;;;;;;;5.36;72.31;100370.27;1778167;79;27474;-61
2022/01/06 11:01:00;;;;;;;16.73;9.05;;;;;;;5.34;72.37;100374.38;1771807;79;25894;-61
2022/01/06 11:03:36;;;;;;;10.28;6.78;;;;;;;5.28;72.44;100381.02;1767348;81;25823;-61
2022/01/06 11:06:05;;;;;;;12.37;7.62;;;;;;;5.19;72.43;100377.68;1779775;79;26175;-60
2022/01/06 11:08:39;;;;;;;11.68;7.67;;;;;;;5.09;72.49;100377.50;1802309;79;25750;-61
2022/01/06 11:13:40;;;;;;;11.88;8.05;;;;;;;4.89;72.99;100383.41;1758563;79;25797;-63
2022/01/06 11:16:09;;;;;;;11.35;7.40;;;;;;;4.81;73.16;100381.27;1788484;79;25764;-61
2022/01/06 11:18:40;;;;;;;13.25;7.72;;;;;;;4.88;73.36;100390.56;1767256;81;25811;-61
2022/01/06 11:21:14;;;;;;;10.40;6.72;;;;;;;4.89;73.34;100396.23;1765440;79;25758;-61
2022/01/06 11:23:41;;;;;;;;;;;;;;;4.85;73.27;100405.42;1783538;79;28436;-60
2022/01/06 11:26:21;;;;;;;13.30;8.48;;;;;;;4.77;73.25;100407.78;1774181;79;25716;-61
2022/01/06 11:29:03;;;;;;;12.85;7.58;;;;;;;4.60;73.19;100403.16;1779187;79;25663;-60
2022/01/06 11:31:42;;;;;;;12.60;7.08;;;;;;;4.39;73.60;100412.16;1750132;82;25823;-60
2022/01/06 11:34:22;;;;;;;12.03;6.72;;;;;;;4.24;73.78;100418.05;1781093;79;25720;-60
2022/01/06 11:36:54;;;;;;;11.48;6.92;;;;;;;4.20;73.79;100423.19;1813823;78;27458;-61
2022/01/06 11:39:28;;;;;;;12.55;7.72;;;;;;;4.11;74.02;100419.35;1792999;80;25789;-61
2022/01/06 11:42:00;;;;;;;13.70;6.83;;;;;;;4.04;73.91;100409.59;1793214;80;25718;-61